Time;durP1;ratioP1;P1;durP2;ratioP2;P2;SDS_P1;SDS_P2;PMS_P1;PMS_P2;Temp;Humidity;BMP_temperature;BMP_pressure;BME280_temperature;BME280_humidity;BME280_pressure;Samples;Min_cycle;Max_cycle;Signal;HPM_P1;HPM_P2
2021/07/21 00:00:50;;;;;;;10.53;9.37;;;;;;;23.62;52.21;95056.94;5032450;28;20200;-71
2021/07/21 00:03:19;;;;;;;13.37;9.60;;;;;;;23.46;52.71;95050.69;5012922;28;20188;-68
2021/07/21 00:05:48;;;;;;;14.60;9.67;;;;;;;23.25;53.24;95058.72;5024536;28;20582;-70
2021/07/21 00:08:15;;;;;;;14.87;10.30;;;;;;;23.20;53.39;95047.47;5031635;28;20205;-68
2021/07/21 00:10:43;;;;;;;12.77;9.87;;;;;;;23.11;53.91;95043.00;5031048;28;20197;-69
2021/07/21 00:13:32;;;;;;;15.90;10.47;;;;;;;23.41;53.27;95046.31;5017178;28;20635;-69
2021/07/21 00:16:11;;;;;;;14.73;10.73;;;;;;;23.33;53.42;95049.09;5031128;28;20989;-71
2021/07/21 00:21:14;;;;;;;17.63;10.37;;;;;;;23.31;54.13;95056.66;5032405;28;20241;-72
2021/07/21 00:23:42;;;;;;;17.47;10.90;;;;;;;23.23;54.18;95044.16;5032481;28;20709;-71
2021/07/21 00:26:09;;;;;;;17.20;10.67;;;;;;;23.40;53.93;95041.31;5030962;28;20664;-72
2021/07/21 00:28:39;;;;;;;16.43;11.03;;;;;;;23.32;54.03;95042.19;5031252;28;20225;-68
2021/07/21 00:31:07;;;;;;;16.20;11.13;;;;;;;23.30;54.51;95049.75;5030925;28;20217;-73
2021/07/21 00:33:35;;;;;;;17.10;11.57;;;;;;;23.16;55.00;95052.69;5031422;28;20209;-70
2021/07/21 00:36:02;;;;;;;16.60;11.03;;;;;;;23.42;54.28;95041.75;5030439;28;20230;-69
2021/07/21 00:38:30;;;;;;;14.80;11.10;;;;;;;23.56;54.00;95042.22;5030994;28;20236;-69
2021/07/21 00:40:57;;;;;;;13.23;11.67;;;;;;;23.70;54.06;95051.47;5029441;28;20287;-74
2021/07/21 00:43:26;;;;;;;14.43;10.50;;;;;;;23.61;53.98;95050.03;5030323;28;20204;-66
2021/07/21 00:45:52;;;;;;;20.87;11.30;;;;;;;23.26;54.90;95040.81;5033431;28;20201;-73
2021/07/21 00:48:22;;;;;;;19.63;12.47;;;;;;;23.41;54.93;95046.31;5031286;28;20259;-71
2021/07/21 00:50:52;;;;;;;14.67;11.37;;;;;;;23.33;55.41;95051.78;5035236;28;20200;-69
2021/07/21 00:53:20;;;;;;;15.20;11.07;;;;;;;23.33;55.44;95044.53;5021484;28;20190;-69
2021/07/21 00:55:47;;;;;;;16.27;11.47;;;;;;;23.29;55.93;95042.81;5023869;28;20216;-72
2021/07/21 00:58:15;;;;;;;17.53;12.10;;;;;;;23.37;55.33;95050.00;5030476;28;20193;-66
2021/07/21 01:00:43;;;;;;;14.13;11.30;;;;;;;23.28;56.15;95051.97;5028816;28;20283;-66
2021/07/21 01:03:11;;;;;;;15.33;12.10;;;;;;;23.33;55.99;95049.09;5028382;28;20205;-68
2021/07/21 01:05:42;;;;;;;18.27;12.07;;;;;;;23.05;57.06;95048.88;5028424;28;20236;-67
2021/07/21 01:08:12;;;;;;;20.47;13.40;;;;;;;23.46;56.21;95050.69;5030014;28;20205;-68
2021/07/21 01:11:11;;;;;;;17.10;11.80;;;;;;;23.27;57.19;95055.72;5025691;28;20280;-71
2021/07/21 01:13:44;;;;;;;21.53;12.23;;;;;;;23.25;57.20;95052.63;5016726;28;20196;-70
2021/07/21 01:16:19;;;;;;;15.40;12.23;;;;;;;23.37;57.03;95060.69;5027752;28;20228;-70
2021/07/21 01:18:59;;;;;;;19.97;12.13;;;;;;;23.27;57.13;95034.34;5017343;28;20208;-71
2021/07/21 01:21:34;;;;;;;16.03;11.93;;;;;;;23.20;57.59;95050.94;5014329;28;20557;-69
2021/07/21 01:24:11;;;;;;;16.73;12.50;;;;;;;23.45;56.74;95046.47;5020769;28;20616;-71
2021/07/21 01:26:57;;;;;;;17.37;12.67;;;;;;;23.36;56.78;95048.41;5010261;28;20659;-70
2021/07/21 01:29:28;;;;;;;17.63;12.33;;;;;;;23.50;56.18;95043.56;5019959;28;20246;-67
2021/07/21 01:31:59;;;;;;;18.13;12.87;;;;;;;23.59;56.20;95052.25;5016131;28;20201;-73
2021/07/21 01:34:30;;;;;;;15.53;12.83;;;;;;;23.46;56.83;95042.66;5029510;28;20213;-72
2021/07/21 01:36:59;;;;;;;17.13;12.30;;;;;;;23.26;57.15;95049.63;5028216;28;20220;-68
2021/07/21 01:39:30;;;;;;;19.40;11.53;;;;;;;23.56;56.47;95042.22;5021091;28;20201;-71
2021/07/21 01:42:04;;;;;;;14.90;11.90;;;;;;;23.57;56.03;95049.13;5029378;28;20221;-65
2021/07/21 01:44:36;;;;;;;20.27;11.73;;;;;;;23.61;55.97;95039.34;5029238;28;20657;-68
2021/07/21 01:47:04;;;;;;;19.83;12.10;;;;;;;23.44;55.93;95029.63;5028209;28;20291;-70
2021/07/21 01:49:38;;;;;;;15.67;12.67;;;;;;;23.26;56.97;95048.81;5021114;28;20196;-67
2021/07/21 01:52:14;;;;;;;19.43;11.97;;;;;;;23.74;55.70;95038.22;5016733;28;20229;-67
2021/07/21 01:54:43;;;;;;;19.17;12.03;;;;;;;23.49;55.88;95047.31;5029091;28;20231;-70
2021/07/21 01:57:18;;;;;;;16.17;12.67;;;;;;;23.61;55.52;95042.78;5029835;28;20307;-67
2021/07/21 02:00:09;;;;;;;13.47;11.80;;;;;;;23.33;56.28;95038.41;5020650;28;20294;-70
2021/07/21 02:02:50;;;;;;;20.47;12.80;;;;;;;23.41;55.91;95035.63;5030136;28;20205;-68
2021/07/21 02:05:35;;;;;;;21.17;13.43;;;;;;;23.27;56.67;95045.03;5020917;28;20487;-67
2021/07/21 02:08:04;;;;;;;18.70;12.77;;;;;;;23.60;55.55;95043.09;5031710;28;20213;-70
2021/07/21 02:10:32;;;;;;;19.00;12.27;;;;;;;23.52;55.98;95046.69;5033363;28;20197;-66
2021/07/21 02:13:19;;;;;;;17.20;12.70;;;;;;;23.27;56.38;95053.84;5014895;28;20208;-73
2021/07/21 02:16:07;;;;;;;18.47;12.47;;;;;;;23.43;56.06;95048.69;5025614;28;20221;-71
2021/07/21 02:18:35;;;;;;;17.47;12.80;;;;;;;23.49;55.48;95047.31;5033775;28;20287;-70
2021/07/21 02:21:07;;;;;;;17.60;12.43;;;;;;;23.28;55.74;95051.97;5031768;28;20201;-67
2021/07/21 02:23:36;;;;;;;17.07;12.87;;;;;;;23.54;55.28;95055.16;5026268;28;20205;-69
2021/07/21 02:26:22;;;;;;;17.07;12.93;;;;;;;23.44;55.10;95055.56;5027500;28;20254;-67
2021/07/21 02:28:52;;;;;;;17.00;12.13;;;;;;;23.20;56.25;95055.50;5033238;28;20228;-67
2021/07/21 02:31:36;;;;;;;17.30;13.63;;;;;;;23.27;56.18;95058.41;5032799;28;20193;-68
2021/07/21 02:34:06;;;;;;;18.67;12.77;;;;;;;23.35;55.80;95057.56;5023543;28;20626;-70
2021/07/21 02:36:34;;;;;;;15.37;11.63;;;;;;;23.24;56.36;95053.72;5031365;28;20221;-71
2021/07/21 02:39:06;;;;;;;19.73;13.47;;;;;;;22.99;56.90;95055.56;5032082;28;20212;-69
2021/07/21 02:41:35;;;;;;;18.33;12.67;;;;;;;22.97;56.74;95031.06;5031873;28;20333;-69
2021/07/21 02:44:05;;;;;;;16.33;12.63;;;;;;;22.85;57.45;95049.69;5031800;28;20201;-67
2021/07/21 02:46:34;;;;;;;18.03;12.90;;;;;;;22.89;57.31;95056.75;5018255;28;20210;-73
2021/07/21 02:49:02;;;;;;;18.03;12.47;;;;;;;22.78;56.97;95041.44;5034280;28;20197;-68
2021/07/21 02:51:45;;;;;;;16.80;12.73;;;;;;;22.90;57.24;95063.63;5025980;28;20275;-70
2021/07/21 02:54:46;;;;;;;18.27;13.40;;;;;;;23.19;56.04;95072.66;5029336;28;20204;-67
2021/07/21 02:57:24;;;;;;;14.47;12.97;;;;;;;23.35;56.04;95070.94;5031562;28;20315;-70
2021/07/21 02:59:54;;;;;;;16.63;12.93;;;;;;;23.20;56.45;95075.00;5030402;28;20202;-70
2021/07/21 03:02:27;;;;;;;16.70;13.20;;;;;;;23.17;56.10;95077.53;5013062;28;20543;-69
2021/07/21 03:04:59;;;;;;;18.87;13.57;;;;;;;23.22;56.05;95066.63;5017188;28;20295;-72
2021/07/21 03:07:41;;;;;;;18.33;13.40;;;;;;;23.05;56.09;95075.59;5031526;28;20216;-67
2021/07/21 03:10:11;;;;;;;17.23;13.83;;;;;;;23.17;56.08;95071.06;5019425;28;20331;-67
2021/07/21 03:13:15;;;;;;;17.93;13.67;;;;;;;22.60;57.08;95078.19;5028131;28;20198;-70
2021/07/21 03:15:51;;;;;;;15.77;12.43;;;;;;;23.02;55.84;95071.72;5019177;28;20205;-70
2021/07/21 03:18:27;;;;;;;17.50;12.60;;;;;;;23.11;55.46;95074.28;5029719;28;20201;-67
2021/07/21 03:20:58;;;;;;;18.93;13.57;;;;;;;22.65;56.21;95075.31;5033742;28;20197;-69
2021/07/21 03:23:30;;;;;;;22.93;12.67;;;;;;;22.80;55.62;95077.41;5035203;28;20695;-68
2021/07/21 03:26:18;;;;;;;17.13;13.33;;;;;;;22.59;55.35;95052.59;5032308;28;20228;-73
2021/07/21 03:28:51;;;;;;;17.70;12.17;;;;;;;22.51;56.51;95093.47;5031150;28;20750;-68
2021/07/21 03:31:19;;;;;;;21.13;13.13;;;;;;;22.35;56.19;95095.16;5033573;28;20209;-66
2021/07/21 03:34:12;;;;;;;20.60;13.37;;;;;;;22.15;56.80;95101.25;5037372;28;20208;-67
2021/07/21 03:37:02;;;;;;;20.43;13.67;;;;;;;22.17;56.40;95112.38;5025135;28;20220;-69
2021/07/21 03:39:57;;;;;;;21.20;13.77;;;;;;;22.07;56.81;95099.41;5025148;28;20250;-68
2021/07/21 03:42:44;;;;;;;18.93;13.23;;;;;;;22.35;55.84;95100.50;5028155;28;20243;-70
2021/07/21 03:45:17;;;;;;;14.97;12.57;;;;;;;22.30;56.00;95114.03;5026095;28;20205;-69
2021/07/21 03:47:47;;;;;;;18.30;13.53;;;;;;;22.18;56.20;95119.28;5029617;28;20205;-69
2021/07/21 03:50:18;;;;;;;16.57;13.17;;;;;;;21.82;56.90;95119.75;5028993;28;20206;-75
2021/07/21 03:52:48;;;;;;;17.03;13.17;;;;;;;22.06;56.32;95119.97;5027666;28;20226;-70
2021/07/21 03:55:21;;;;;;;16.80;12.70;;;;;;;22.25;55.50;95111.53;5040225;28;20225;-68
2021/07/21 03:58:17;;;;;;;20.77;12.73;;;;;;;22.40;54.90;95124.34;5029911;28;20231;-72
2021/07/21 04:00:55;;;;;;;17.47;12.20;;;;;;;22.31;55.27;95125.50;5028454;28;20204;-69
2021/07/21 04:03:31;;;;;;;16.70;12.93;;;;;;;22.38;54.51;95125.75;5030422;28;20436;-70
2021/07/21 04:06:03;;;;;;;19.57;12.17;;;;;;;22.38;54.48;95126.56;5026451;28;20201;-71
2021/07/21 04:08:54;;;;;;;22.33;13.20;;;;;;;22.28;54.24;95126.16;5024533;28;20213;-67
2021/07/21 04:11:28;;;;;;;15.57;12.23;;;;;;;22.47;54.18;95135.28;5027192;28;20204;-68
2021/07/21 04:13:59;;;;;;;19.77;12.00;;;;;;;22.14;54.07;95142.38;5032277;28;20325;-74
2021/07/21 04:16:47;;;;;;;14.53;12.73;;;;;;;22.37;53.95;95138.31;5022223;28;20291;-67
2021/07/21 04:19:17;;;;;;;17.33;12.77;;;;;;;22.48;53.46;95136.84;5028186;28;20228;-68
2021/07/21 04:21:50;;;;;;;14.93;11.53;;;;;;;22.65;53.29;95135.97;5025596;28;20309;-74
2021/07/21 04:24:20;;;;;;;15.40;12.20;;;;;;;23.01;52.03;95139.63;5028483;28;20193;-73
2021/07/21 04:26:49;;;;;;;17.13;12.77;;;;;;;22.74;52.45;95142.84;5027041;28;20194;-68
2021/07/21 04:29:21;;;;;;;17.33;12.80;;;;;;;22.79;52.27;95142.63;5029688;28;20193;-75
2021/07/21 04:31:50;;;;;;;19.27;13.13;;;;;;;22.19;53.00;95150.19;5030782;28;20212;-69
2021/07/21 04:34:19;;;;;;;16.67;12.17;;;;;;;22.35;53.17;95145.91;5022624;28;20201;-69
2021/07/21 04:36:51;;;;;;;24.60;14.17;;;;;;;22.49;53.43;95156.31;5014987;28;20225;-65
2021/07/21 04:39:24;;;;;;;18.30;12.60;;;;;;;22.31;52.82;95142.31;5030364;28;20730;-71
2021/07/21 04:42:25;;;;;;;17.13;11.63;;;;;;;22.56;52.27;95141.38;5010699;28;20236;-67
2021/07/21 04:44:53;;;;;;;15.53;12.50;;;;;;;22.33;52.05;95139.31;5028902;28;20749;-69
2021/07/21 04:47:20;;;;;;;18.57;12.83;;;;;;;22.09;52.25;95138.03;5021719;28;20228;-67
2021/07/21 04:49:51;;;;;;;16.13;12.63;;;;;;;21.87;53.03;95135.59;5038739;28;20201;-66
2021/07/21 04:52:20;;;;;;;20.20;13.47;;;;;;;21.89;53.17;95145.94;5027877;28;20197;-68
2021/07/21 04:54:48;;;;;;;33.90;26.50;;;;;;;22.01;52.66;95149.50;5022881;28;20190;-66
2021/07/21 04:57:18;;;;;;;28.40;19.57;;;;;;;21.86;52.56;95149.25;5022112;28;20311;-65
2021/07/21 05:00:06;;;;;;;16.00;13.50;;;;;;;22.23;52.79;95151.13;5018671;28;20209;-70
2021/07/21 05:02:51;;;;;;;16.07;13.00;;;;;;;22.10;52.74;95152.13;5001225;28;20621;-70
2021/07/21 05:05:18;;;;;;;18.20;13.03;;;;;;;21.93;52.11;95126.28;5028802;28;20200;-69
2021/07/21 05:08:14;;;;;;;18.57;13.73;;;;;;;21.95;52.64;95152.69;5012212;28;20209;-67
2021/07/21 05:11:01;;;;;;;19.47;12.67;;;;;;;22.31;51.79;95155.66;5029816;28;20205;-63
2021/07/21 05:13:32;;;;;;;15.40;12.30;;;;;;;22.53;51.27;95160.72;5030587;28;20197;-71
2021/07/21 05:16:00;;;;;;;18.20;13.40;;;;;;;22.40;51.46;95163.59;5029321;28;20197;-67
2021/07/21 05:18:27;;;;;;;28.50;22.47;;;;;;;22.46;51.49;95165.78;5024706;28;20652;-68
2021/07/21 05:20:59;;;;;;;49.00;38.83;;;;;;;22.43;51.77;95163.75;5017920;28;20202;-70
2021/07/21 05:23:27;;;;;;;20.07;13.67;;;;;;;22.40;51.28;95167.06;5028529;28;20205;-73
2021/07/21 05:26:04;;;;;;;19.60;12.23;;;;;;;22.18;51.25;95167.34;5031165;28;20733;-69
2021/07/21 05:28:38;;;;;;;19.10;13.13;;;;;;;22.48;50.83;95147.53;5029401;28;20614;-72
2021/07/21 05:31:36;;;;;;;16.57;12.67;;;;;;;22.42;50.36;95170.19;5018023;28;20213;-68
2021/07/21 05:34:22;;;;;;;16.43;12.03;;;;;;;22.30;50.87;95172.75;5031447;28;20196;-67
2021/07/21 05:36:53;;;;;;;20.33;12.73;;;;;;;22.22;50.32;95165.59;5030221;28;20228;-66
2021/07/21 05:39:40;;;;;;;22.87;12.87;;;;;;;22.59;49.85;95158.66;5031823;28;20300;-66
2021/07/21 05:42:07;;;;;;;19.00;13.50;;;;;;;22.50;49.45;95161.34;5023506;28;20228;-70
2021/07/21 05:44:37;;;;;;;15.27;12.07;;;;;;;22.17;49.72;95157.75;5022419;28;20208;-64
2021/07/21 05:47:04;;;;;;;16.70;12.60;;;;;;;22.41;48.86;95155.25;5028668;28;20295;-63
2021/07/21 05:49:32;;;;;;;17.70;12.60;;;;;;;22.64;48.56;95148.56;5028188;28;20221;-68
2021/07/21 05:52:03;;;;;;;19.47;13.40;;;;;;;22.38;49.23;95155.13;5028529;28;20296;-68
2021/07/21 05:54:37;;;;;;;17.73;12.60;;;;;;;22.61;49.22;95151.88;5015375;28;20252;-68
2021/07/21 05:57:05;;;;;;;17.90;12.93;;;;;;;22.47;47.18;95159.31;5028476;28;20304;-74
2021/07/21 05:59:36;;;;;;;17.50;12.83;;;;;;;22.26;47.38;95155.84;5015853;28;20689;-74
2021/07/21 06:02:04;;;;;;;17.33;12.80;;;;;;;22.62;46.50;95158.78;5028642;28;20201;-77
2021/07/21 06:04:33;;;;;;;17.27;12.77;;;;;;;22.62;46.92;95163.34;5028234;28;20577;-70
2021/07/21 06:07:19;;;;;;;19.77;12.90;;;;;;;22.83;45.83;95167.59;5029806;28;20639;-67
2021/07/21 06:10:05;;;;;;;22.10;12.33;;;;;;;22.61;46.23;95162.56;5016196;28;20586;-69
2021/07/21 06:12:44;;;;;;;17.43;11.73;;;;;;;23.04;45.07;95159.59;5014466;28;20548;-69
2021/07/21 06:15:11;;;;;;;17.67;12.33;;;;;;;23.12;44.91;95172.88;5029034;28;20209;-67
2021/07/21 06:17:38;;;;;;;16.77;12.43;;;;;;;23.07;45.15;95175.75;5028180;28;20235;-67
2021/07/21 06:20:08;;;;;;;18.53;12.17;;;;;;;22.98;44.91;95155.53;5027554;28;20209;-66
2021/07/21 06:22:42;;;;;;;22.47;13.07;;;;;;;23.05;45.25;95183.31;5029569;28;20286;-70
2021/07/21 06:25:17;;;;;;;16.93;12.93;;;;;;;23.27;44.55;95181.41;5027705;28;20197;-68
2021/07/21 06:28:04;;;;;;;14.70;11.60;;;;;;;23.20;44.14;95178.47;5029090;28;20692;-71
2021/07/21 06:30:34;;;;;;;16.43;12.37;;;;;;;23.10;44.69;95179.66;5028143;28;20201;-69
2021/07/21 06:33:04;;;;;;;14.40;11.73;;;;;;;23.05;45.67;95182.53;5016962;28;20198;-71
2021/07/21 06:35:32;;;;;;;17.27;12.80;;;;;;;23.50;43.94;95188.75;5027639;28;20224;-74
2021/07/21 06:37:59;;;;;;;18.87;12.87;;;;;;;23.33;44.64;95188.16;5029769;28;20265;-66
2021/07/21 06:40:28;;;;;;;18.13;11.80;;;;;;;23.27;43.89;95189.41;5028497;28;20655;-70
2021/07/21 06:43:01;;;;;;;20.47;12.67;;;;;;;23.57;43.58;95190.91;5030758;28;20259;-70
2021/07/21 06:45:32;;;;;;;18.07;11.90;;;;;;;23.62;42.55;95193.38;5032213;28;20197;-67
2021/07/21 06:48:11;;;;;;;17.83;11.87;;;;;;;23.80;42.63;95192.09;5015573;28;20655;-68
2021/07/21 06:50:42;;;;;;;14.60;11.27;;;;;;;23.52;42.78;95201.84;5032783;28;20228;-67
2021/07/21 06:53:10;;;;;;;18.23;12.27;;;;;;;23.75;42.00;95205.69;5024868;28;20242;-72
2021/07/21 06:55:56;;;;;;;17.47;11.63;;;;;;;23.44;42.02;95200.00;5027388;28;20227;-70
2021/07/21 06:58:25;;;;;;;18.23;12.03;;;;;;;23.88;42.03;95199.25;5019957;28;20217;-71
2021/07/21 07:00:54;;;;;;;15.63;12.00;;;;;;;23.88;41.58;95188.56;5032335;28;20296;-68
2021/07/21 07:03:40;;;;;;;13.33;11.60;;;;;;;23.84;40.38;95196.47;5033037;28;20212;-67
2021/07/21 07:06:26;;;;;;;15.80;11.50;;;;;;;23.68;41.29;95194.75;5032563;28;20204;-65
2021/07/21 07:09:12;;;;;;;15.80;11.37;;;;;;;23.71;40.52;95183.38;5034724;28;20290;-70
2021/07/21 07:12:03;;;;;;;16.93;11.50;;;;;;;24.19;40.95;95188.84;5024779;28;20816;-68
2021/07/21 07:14:30;;;;;;;14.13;11.77;;;;;;;24.24;39.79;95196.66;5012352;28;20210;-66
2021/07/21 07:16:57;;;;;;;15.30;11.53;;;;;;;23.57;40.19;95185.56;5019731;28;20244;-69
2021/07/21 07:19:25;;;;;;;16.27;11.00;;;;;;;23.58;40.12;95189.78;5032589;28;20204;-70
2021/07/21 07:21:52;;;;;;;16.30;11.67;;;;;;;23.78;40.24;95180.94;5030782;28;20283;-68
2021/07/21 07:24:19;;;;;;;15.60;11.30;;;;;;;23.77;39.77;95187.41;5030543;28;20200;-69
2021/07/21 07:26:47;;;;;;;16.57;11.63;;;;;;;24.00;39.81;95188.56;5029143;28;20200;-68
2021/07/21 07:29:14;;;;;;;13.90;11.03;;;;;;;24.15;39.57;95193.31;5032791;28;20201;-70
2021/07/21 07:31:41;;;;;;;18.43;11.67;;;;;;;24.45;39.07;95185.84;5031679;28;20205;-74
2021/07/21 07:34:09;;;;;;;13.83;10.60;;;;;;;24.63;39.35;95197.91;5032556;28;20291;-63
2021/07/21 07:36:37;;;;;;;17.83;11.87;;;;;;;24.58;39.57;95201.56;5032294;28;20764;-69
2021/07/21 07:39:05;;;;;;;15.07;11.90;;;;;;;24.86;39.02;95186.38;5031936;28;20602;-68
2021/07/21 07:41:32;;;;;;;21.20;12.23;;;;;;;24.57;38.13;95202.69;5031897;28;20232;-72
2021/07/21 07:43:59;;;;;;;14.77;11.50;;;;;;;24.63;38.77;95197.91;5031791;28;20228;-65
2021/07/21 07:46:27;;;;;;;17.73;11.30;;;;;;;24.22;38.56;95172.09;5032041;28;20886;-68
2021/07/21 07:48:55;;;;;;;16.73;10.60;;;;;;;24.50;38.28;95199.81;5023829;28;20209;-67
2021/07/21 07:51:22;;;;;;;14.33;11.20;;;;;;;24.57;37.33;95194.66;5032149;28;20635;-67
2021/07/21 07:53:51;;;;;;;16.90;10.50;;;;;;;24.98;37.00;95188.28;5031934;28;20203;-68
2021/07/21 07:56:19;;;;;;;15.47;10.30;;;;;;;25.23;38.14;95183.63;5030913;28;20660;-69
2021/07/21 07:58:46;;;;;;;16.57;10.67;;;;;;;25.27;38.29;95203.28;5020673;28;20237;-65
2021/07/21 08:01:13;;;;;;;15.90;10.60;;;;;;;25.28;36.63;95191.41;5028571;28;20205;-68
2021/07/21 08:03:41;;;;;;;15.40;10.77;;;;;;;24.88;37.15;95178.78;5031403;28;20247;-67
2021/07/21 08:06:10;;;;;;;18.17;10.83;;;;;;;25.24;36.90;95185.16;5029171;28;20626;-67
2021/07/21 08:08:37;;;;;;;15.23;11.47;;;;;;;25.63;36.71;95195.09;5020091;28;20310;-65
2021/07/21 08:11:05;;;;;;;14.93;10.77;;;;;;;25.58;36.44;95192.69;5030766;28;20291;-66
2021/07/21 08:13:33;;;;;;;14.33;10.93;;;;;;;25.49;36.77;95190.13;5025102;28;20256;-68
2021/07/21 08:16:00;;;;;;;16.37;10.60;;;;;;;25.26;36.10;95193.66;5011130;28;20205;-68
2021/07/21 08:18:27;;;;;;;14.87;10.97;;;;;;;25.59;37.00;95199.59;5031438;28;20236;-70
2021/07/21 08:20:56;;;;;;;17.07;11.03;;;;;;;25.54;36.82;95199.84;5033015;28;20281;-68
2021/07/21 08:23:23;;;;;;;13.00;10.13;;;;;;;25.57;36.16;95199.94;5033290;28;20636;-67
2021/07/21 08:25:50;;;;;;;15.70;10.43;;;;;;;26.22;36.21;95192.44;5031831;28;20686;-66
2021/07/21 08:28:17;;;;;;;15.67;10.90;;;;;;;25.85;34.80;95207.97;5029197;28;20873;-67
2021/07/21 08:30:45;;;;;;;15.20;10.73;;;;;;;26.04;34.80;95218.84;5019327;28;20201;-68
2021/07/21 08:33:13;;;;;;;15.87;10.70;;;;;;;26.02;34.61;95205.75;5030576;28;20208;-66
2021/07/21 08:35:41;;;;;;;14.67;10.40;;;;;;;25.71;34.35;95210.28;5030700;28;20204;-70
2021/07/21 08:38:08;;;;;;;12.13;10.57;;;;;;;25.60;35.07;95206.53;5030368;28;20229;-67
2021/07/21 08:40:36;;;;;;;16.43;10.80;;;;;;;25.68;34.62;95211.75;5030838;28;20220;-69
2021/07/21 08:43:23;;;;;;;16.00;10.83;;;;;;;25.09;35.07;95214.25;5031126;28;20284;-75
2021/07/21 08:45:52;;;;;;;13.63;9.83;;;;;;;25.18;34.71;95216.03;5030889;28;20197;-65
2021/07/21 08:48:19;;;;;;;13.70;10.73;;;;;;;25.63;34.34;95211.22;5030401;28;20208;-67
2021/07/21 08:50:47;;;;;;;16.27;10.30;;;;;;;25.91;33.86;95217.34;5030303;28;20205;-64
2021/07/21 08:53:15;;;;;;;15.63;11.00;;;;;;;26.02;34.97;95204.97;5023951;28;20193;-67
2021/07/21 08:55:43;;;;;;;12.83;9.93;;;;;;;26.19;33.52;95204.66;5012672;28;20242;-67
2021/07/21 08:58:11;;;;;;;13.97;10.13;;;;;;;26.22;33.56;95198.63;5025180;28;20695;-68
2021/07/21 09:00:39;;;;;;;13.37;9.23;;;;;;;25.86;33.85;95201.47;5024684;28;20217;-70
2021/07/21 09:03:09;;;;;;;14.87;9.70;;;;;;;26.10;33.43;95196.00;5029876;28;20205;-69
2021/07/21 09:05:39;;;;;;;15.13;10.40;;;;;;;26.28;33.98;95202.56;5027312;28;20197;-66
2021/07/21 09:08:06;;;;;;;16.70;10.50;;;;;;;26.41;33.10;95201.38;5036359;28;20206;-65
2021/07/21 09:10:33;;;;;;;13.90;10.80;;;;;;;26.53;33.00;95195.88;5031085;28;20583;-68
2021/07/21 09:13:03;;;;;;;17.53;15.53;;;;;;;26.53;32.89;95177.06;5032312;28;20251;-68
2021/07/21 09:15:30;;;;;;;12.87;9.90;;;;;;;26.75;34.38;95200.66;5029865;28;20194;-70
2021/07/21 09:18:05;;;;;;;14.00;11.03;;;;;;;26.12;34.45;95191.06;5030341;28;20264;-70
2021/07/21 09:20:34;;;;;;;12.90;10.50;;;;;;;26.36;33.61;95188.19;5030584;28;20605;-66
2021/07/21 09:23:01;;;;;;;15.63;10.23;;;;;;;25.98;33.75;95196.81;5029775;28;20639;-68
2021/07/21 09:25:30;;;;;;;13.90;11.00;;;;;;;26.31;33.64;95188.47;5016683;28;20208;-66
2021/07/21 09:28:00;;;;;;;18.73;11.23;;;;;;;26.34;32.93;95193.13;5030573;28;20216;-70
2021/07/21 09:30:31;;;;;;;13.27;10.07;;;;;;;26.68;32.57;95189.75;5029860;28;20201;-67
2021/07/21 09:33:02;;;;;;;16.33;10.37;;;;;;;26.48;32.93;95206.13;5029586;28;20220;-67
2021/07/21 09:35:32;;;;;;;17.03;10.60;;;;;;;26.62;32.82;95166.16;5029426;28;20664;-67
2021/07/21 09:38:03;;;;;;;15.13;11.03;;;;;;;26.59;32.30;95180.28;5029746;28;20221;-64
2021/07/21 09:40:30;;;;;;;14.20;10.50;;;;;;;26.95;32.82;95174.59;5028004;28;20197;-72
2021/07/21 09:42:57;;;;;;;13.93;9.60;;;;;;;27.25;31.84;95170.22;5029624;28;20652;-70
2021/07/21 09:45:24;;;;;;;15.87;10.77;;;;;;;27.20;31.76;95164.34;5015738;28;20225;-71
2021/07/21 09:47:54;;;;;;;14.87;8.90;;;;;;;27.28;31.30;95174.13;5029996;28;20197;-73
2021/07/21 09:50:30;;;;;;;13.60;10.50;;;;;;;27.06;31.62;95172.13;5029118;28;20208;-76
2021/07/21 09:53:04;;;;;;;13.93;10.00;;;;;;;26.82;31.37;95179.28;5023993;28;20749;-69
2021/07/21 09:55:36;;;;;;;13.87;10.50;;;;;;;26.56;32.56;95164.84;5022265;28;20304;-68
2021/07/21 09:58:07;;;;;;;20.27;11.00;;;;;;;27.04;31.47;95181.31;5010425;28;20288;-67
2021/07/21 10:00:45;;;;;;;18.87;10.70;;;;;;;27.65;31.42;95167.19;5021325;28;20200;-65
2021/07/21 10:03:35;;;;;;;13.47;10.67;;;;;;;27.31;31.51;95168.84;5009829;28;20549;-65
2021/07/21 10:06:04;;;;;;;17.83;10.70;;;;;;;26.63;31.41;95173.88;5024201;28;20212;-70
2021/07/21 10:08:34;;;;;;;17.97;10.83;;;;;;;27.19;30.67;95168.19;5029696;28;20584;-66
2021/07/21 10:11:21;;;;;;;11.33;9.77;;;;;;;26.99;30.56;95167.38;5028958;28;20577;-66
2021/07/21 10:14:09;;;;;;;13.60;10.00;;;;;;;27.15;30.42;95165.44;5029540;28;20571;-71
2021/07/21 10:16:46;;;;;;;12.80;10.27;;;;;;;27.49;30.08;95155.72;5014883;28;20193;-67
2021/07/21 10:19:19;;;;;;;16.27;9.93;;;;;;;27.24;29.80;95178.66;5029367;28;20236;-71
2021/07/21 10:22:06;;;;;;;13.63;9.93;;;;;;;27.30;30.45;95166.50;5016986;28;20276;-66
2021/07/21 10:24:35;;;;;;;18.27;10.87;;;;;;;27.36;30.08;95159.69;5032768;28;20586;-65
2021/07/21 10:27:03;;;;;;;20.37;10.07;;;;;;;27.58;29.99;95148.22;5019742;28;20196;-68
2021/07/21 10:29:31;;;;;;;15.83;10.30;;;;;;;28.09;30.52;95152.22;5032739;28;20199;-71
2021/07/21 10:31:59;;;;;;;13.03;10.33;;;;;;;27.56;30.23;95155.88;5033129;28;20304;-70
2021/07/21 10:34:26;;;;;;;14.23;9.57;;;;;;;26.97;31.00;95162.34;5033281;28;20581;-67
2021/07/21 10:36:54;;;;;;;18.10;10.50;;;;;;;27.52;30.64;95163.09;5019383;28;20197;-64
2021/07/21 10:39:30;;;;;;;16.30;10.33;;;;;;;28.14;30.33;95160.00;5032960;28;20209;-66
2021/07/21 10:42:05;;;;;;;12.83;9.93;;;;;;;28.18;28.80;95163.53;5018944;28;20247;-68
2021/07/21 10:44:32;;;;;;;12.43;10.23;;;;;;;27.99;29.20;95171.69;5032815;28;20568;-71
2021/07/21 10:47:02;;;;;;;13.93;10.57;;;;;;;27.94;29.88;95153.13;5032904;28;20197;-68
2021/07/21 10:49:36;;;;;;;14.57;10.07;;;;;;;27.59;30.46;95152.47;5032907;28;20563;-67
2021/07/21 11:00:21;;;;;;;20.60;10.57;;;;;;;27.81;29.00;95159.78;5026939;28;20243;-66
2021/07/21 11:02:49;;;;;;;14.20;10.60;;;;;;;27.36;29.72;95144.34;5036020;28;20240;-70
2021/07/21 11:05:34;;;;;;;12.13;9.50;;;;;;;27.01;29.82;95144.38;5027772;28;20547;-71
2021/07/21 11:08:04;;;;;;;15.77;9.73;;;;;;;27.44;29.54;95150.63;5017698;28;20204;-68
2021/07/21 11:10:39;;;;;;;12.53;8.67;;;;;;;27.12;29.38;95149.19;5037172;28;20201;-66
2021/07/21 11:13:09;;;;;;;16.00;10.40;;;;;;;27.72;28.62;95132.31;5033094;28;20224;-67
2021/07/21 11:15:37;;;;;;;13.50;9.73;;;;;;;27.81;28.31;95139.03;5032563;28;20207;-70
2021/07/21 11:18:22;;;;;;;14.30;9.53;;;;;;;28.28;28.15;95146.00;5031843;28;20209;-68
2021/07/21 11:21:06;;;;;;;13.93;9.57;;;;;;;28.59;27.78;95135.75;5032169;28;20208;-65
2021/07/21 11:23:42;;;;;;;19.37;12.63;;;;;;;28.28;28.01;95125.22;5018324;28;20204;-69
2021/07/21 11:26:34;;;;;;;13.03;9.20;;;;;;;28.12;28.70;95139.97;5019327;28;20237;-72
2021/07/21 11:29:25;;;;;;;14.27;9.80;;;;;;;28.51;27.83;95134.03;5020553;28;20232;-67
2021/07/21 11:31:52;;;;;;;27.43;17.23;;;;;;;28.67;28.27;95142.78;5018071;28;20925;-66
2021/07/21 11:34:36;;;;;;;12.87;9.67;;;;;;;28.25;27.32;95142.09;5031307;28;20667;-67
2021/07/21 11:37:27;;;;;;;14.07;10.07;;;;;;;28.45;27.41;95130.09;5032244;28;20221;-65
2021/07/21 11:39:57;;;;;;;11.83;9.03;;;;;;;27.77;27.96;95142.81;5031401;28;20275;-71
2021/07/21 11:42:25;;;;;;;12.43;9.50;;;;;;;28.21;28.42;95146.66;5032122;28;20315;-67
2021/07/21 11:45:18;;;;;;;13.23;9.20;;;;;;;27.91;27.93;95138.44;5031572;28;20233;-72
2021/07/21 11:47:47;;;;;;;12.37;8.67;;;;;;;27.50;28.43;95144.59;5032165;28;20288;-71
2021/07/21 11:50:21;;;;;;;12.57;9.27;;;;;;;27.21;28.55;95145.16;5024336;28;20199;-68
2021/07/21 11:53:03;;;;;;;13.07;9.10;;;;;;;28.07;28.02;95138.34;5031941;28;20593;-67
2021/07/21 11:55:36;;;;;;;13.10;8.90;;;;;;;28.05;28.20;95150.63;5031761;28;20312;-67
2021/07/21 11:58:14;;;;;;;13.60;9.37;;;;;;;28.12;28.62;95148.81;5031623;28;20655;-67